sensor_id;sensor_type;location;lat;lon;timestamp;P1;durP1;ratioP1;P2;durP2;ratioP2
77872;SDS011;67068;52.116;4.440;2023-03-15T00:01:15;3.28;;;0.40;;
77872;SDS011;67068;52.116;4.440;2023-03-15T00:03:42;4.53;;;0.55;;
77872;SDS011;67068;52.116;4.440;2023-03-15T00:06:08;3.35;;;0.70;;
77872;SDS011;67068;52.116;4.440;2023-03-15T00:08:33;4.32;;;0.70;;
77872;SDS011;67068;52.116;4.440;2023-03-15T00:10:58;2.33;;;0.37;;
77872;SDS011;67068;52.116;4.440;2023-03-15T00:13:24;1.85;;;0.43;;
77872;SDS011;67068;52.116;4.440;2023-03-15T00:15:50;3.00;;;0.50;;
77872;SDS011;67068;52.116;4.440;2023-03-15T00:18:16;3.30;;;0.50;;
77872;SDS011;67068;52.116;4.440;2023-03-15T00:20:41;5.50;;;0.50;;
77872;SDS011;67068;52.116;4.440;2023-03-15T00:23:07;3.67;;;0.50;;
77872;SDS011;67068;52.116;4.440;2023-03-15T00:25:32;3.22;;;0.60;;
77872;SDS011;67068;52.116;4.440;2023-03-15T00:27:57;3.17;;;0.40;;
77872;SDS011;67068;52.116;4.440;2023-03-15T00:30:22;1.80;;;0.43;;
77872;SDS011;67068;52.116;4.440;2023-03-15T00:32:48;2.70;;;0.47;;
77872;SDS011;67068;52.116;4.440;2023-03-15T00:35:13;3.10;;;0.60;;
77872;SDS011;67068;52.116;4.440;2023-03-15T00:37:38;2.03;;;0.50;;
77872;SDS011;67068;52.116;4.440;2023-03-15T00:40:04;3.95;;;0.70;;
77872;SDS011;67068;52.116;4.440;2023-03-15T00:42:31;2.63;;;0.45;;
77872;SDS011;67068;52.116;4.440;2023-03-15T00:44:57;4.35;;;0.75;;
77872;SDS011;67068;52.116;4.440;2023-03-15T00:47:23;3.20;;;0.50;;
77872;SDS011;67068;52.116;4.440;2023-03-15T00:49:48;3.80;;;0.50;;
77872;SDS011;67068;52.116;4.440;2023-03-15T00:52:14;3.28;;;0.52;;
77872;SDS011;67068;52.116;4.440;2023-03-15T00:54:40;3.80;;;0.70;;
77872;SDS011;67068;52.116;4.440;2023-03-15T00:57:05;1.95;;;0.50;;
77872;SDS011;67068;52.116;4.440;2023-03-15T00:59:31;3.60;;;0.60;;
77872;SDS011;67068;52.116;4.440;2023-03-15T01:02:03;3.28;;;0.63;;
77872;SDS011;67068;52.116;4.440;2023-03-15T01:04:28;3.85;;;0.60;;
77872;SDS011;67068;52.116;4.440;2023-03-15T01:06:53;2.60;;;0.50;;
77872;SDS011;67068;52.116;4.440;2023-03-15T01:09:19;2.38;;;0.40;;
77872;SDS011;67068;52.116;4.440;2023-03-15T01:11:44;3.38;;;0.55;;
77872;SDS011;67068;52.116;4.440;2023-03-15T01:14:09;2.27;;;0.50;;
77872;SDS011;67068;52.116;4.440;2023-03-15T01:16:34;2.20;;;0.40;;
77872;SDS011;67068;52.116;4.440;2023-03-15T01:19:00;2.20;;;0.40;;
77872;SDS011;67068;52.116;4.440;2023-03-15T01:21:25;2.40;;;0.40;;
77872;SDS011;67068;52.116;4.440;2023-03-15T01:23:50;2.93;;;0.63;;
77872;SDS011;67068;52.116;4.440;2023-03-15T01:26:16;3.00;;;0.50;;
77872;SDS011;67068;52.116;4.440;2023-03-15T01:28:41;1.50;;;0.45;;
77872;SDS011;67068;52.116;4.440;2023-03-15T01:31:08;2.63;;;0.47;;
77872;SDS011;67068;52.116;4.440;2023-03-15T01:33:38;3.42;;;0.40;;
77872;SDS011;67068;52.116;4.440;2023-03-15T01:36:04;2.77;;;0.47;;
77872;SDS011;67068;52.116;4.440;2023-03-15T01:38:30;2.50;;;0.40;;
77872;SDS011;67068;52.116;4.440;2023-03-15T01:40:55;2.05;;;0.45;;
77872;SDS011;67068;52.116;4.440;2023-03-15T01:43:22;2.53;;;0.55;;
77872;SDS011;67068;52.116;4.440;2023-03-15T01:46:01;1.73;;;0.40;;
77872;SDS011;67068;52.116;4.440;2023-03-15T01:50:52;2.23;;;0.37;;
77872;SDS011;67068;52.116;4.440;2023-03-15T01:53:18;1.38;;;0.32;;
77872;SDS011;67068;52.116;4.440;2023-03-15T01:55:44;1.13;;;0.50;;
77872;SDS011;67068;52.116;4.440;2023-03-15T01:58:09;3.27;;;0.40;;
77872;SDS011;67068;52.116;4.440;2023-03-15T02:00:35;2.45;;;0.40;;
77872;SDS011;67068;52.116;4.440;2023-03-15T02:05:27;1.40;;;0.33;;
77872;SDS011;67068;52.116;4.440;2023-03-15T02:07:53;3.85;;;0.60;;
77872;SDS011;67068;52.116;4.440;2023-03-15T02:10:24;1.55;;;0.40;;
77872;SDS011;67068;52.116;4.440;2023-03-15T02:12:51;3.40;;;0.47;;
77872;SDS011;67068;52.116;4.440;2023-03-15T02:15:17;2.75;;;0.40;;
77872;SDS011;67068;52.116;4.440;2023-03-15T02:17:46;3.08;;;0.73;;
77872;SDS011;67068;52.116;4.440;2023-03-15T02:22:54;1.70;;;0.35;;
77872;SDS011;67068;52.116;4.440;2023-03-15T02:27:54;4.10;;;0.80;;
77872;SDS011;67068;52.116;4.440;2023-03-15T02:30:19;3.38;;;0.30;;
77872;SDS011;67068;52.116;4.440;2023-03-15T02:32:45;1.77;;;0.40;;
77872;SDS011;67068;52.116;4.440;2023-03-15T02:35:10;1.80;;;0.50;;
77872;SDS011;67068;52.116;4.440;2023-03-15T02:37:35;3.03;;;0.43;;
77872;SDS011;67068;52.116;4.440;2023-03-15T02:40:00;2.17;;;0.30;;
77872;SDS011;67068;52.116;4.440;2023-03-15T02:42:26;2.53;;;0.37;;
77872;SDS011;67068;52.116;4.440;2023-03-15T02:44:51;2.78;;;0.50;;
77872;SDS011;67068;52.116;4.440;2023-03-15T02:47:27;4.10;;;0.60;;
77872;SDS011;67068;52.116;4.440;2023-03-15T02:49:54;2.75;;;0.40;;
77872;SDS011;67068;52.116;4.440;2023-03-15T02:52:20;1.17;;;0.40;;
77872;SDS011;67068;52.116;4.440;2023-03-15T02:54:45;2.20;;;0.50;;
77872;SDS011;67068;52.116;4.440;2023-03-15T02:57:11;2.17;;;0.37;;
77872;SDS011;67068;52.116;4.440;2023-03-15T02:59:36;1.55;;;0.40;;
77872;SDS011;67068;52.116;4.440;2023-03-15T03:02:02;2.47;;;0.50;;
77872;SDS011;67068;52.116;4.440;2023-03-15T03:04:27;2.83;;;0.50;;
77872;SDS011;67068;52.116;4.440;2023-03-15T03:06:52;2.20;;;0.40;;
77872;SDS011;67068;52.116;4.440;2023-03-15T03:09:18;1.87;;;0.30;;
77872;SDS011;67068;52.116;4.440;2023-03-15T03:11:43;2.30;;;0.50;;
77872;SDS011;67068;52.116;4.440;2023-03-15T03:14:08;5.07;;;0.60;;
77872;SDS011;67068;52.116;4.440;2023-03-15T03:16:33;2.73;;;0.40;;
77872;SDS011;67068;52.116;4.440;2023-03-15T03:18:59;1.97;;;0.70;;
77872;SDS011;67068;52.116;4.440;2023-03-15T03:21:25;3.40;;;0.57;;
77872;SDS011;67068;52.116;4.440;2023-03-15T03:23:50;2.77;;;0.40;;
77872;SDS011;67068;52.116;4.440;2023-03-15T03:26:16;1.33;;;0.23;;
77872;SDS011;67068;52.116;4.440;2023-03-15T03:28:43;2.90;;;0.50;;
77872;SDS011;67068;52.116;4.440;2023-03-15T03:31:14;2.10;;;0.40;;
77872;SDS011;67068;52.116;4.440;2023-03-15T03:33:40;1.77;;;0.35;;
77872;SDS011;67068;52.116;4.440;2023-03-15T03:36:05;2.03;;;0.40;;
77872;SDS011;67068;52.116;4.440;2023-03-15T03:38:30;1.20;;;0.30;;
77872;SDS011;67068;52.116;4.440;2023-03-15T03:40:55;2.00;;;0.40;;
77872;SDS011;67068;52.116;4.440;2023-03-15T03:43:21;1.83;;;0.33;;
77872;SDS011;67068;52.116;4.440;2023-03-15T03:45:46;3.93;;;0.50;;
77872;SDS011;67068;52.116;4.440;2023-03-15T03:48:11;0.93;;;0.20;;
77872;SDS011;67068;52.116;4.440;2023-03-15T03:50:36;2.33;;;0.53;;
77872;SDS011;67068;52.116;4.440;2023-03-15T03:53:02;2.83;;;0.60;;
77872;SDS011;67068;52.116;4.440;2023-03-15T03:55:27;3.37;;;0.50;;
77872;SDS011;67068;52.116;4.440;2023-03-15T03:57:52;1.80;;;0.30;;
77872;SDS011;67068;52.116;4.440;2023-03-15T04:00:17;3.33;;;0.43;;
77872;SDS011;67068;52.116;4.440;2023-03-15T04:02:43;2.47;;;0.47;;
77872;SDS011;67068;52.116;4.440;2023-03-15T04:05:09;1.67;;;0.43;;
77872;SDS011;67068;52.116;4.440;2023-03-15T04:07:35;2.88;;;0.60;;
77872;SDS011;67068;52.116;4.440;2023-03-15T04:10:00;2.92;;;0.40;;
77872;SDS011;67068;52.116;4.440;2023-03-15T04:12:26;2.67;;;0.43;;
77872;SDS011;67068;52.116;4.440;2023-03-15T04:14:51;2.13;;;0.40;;
77872;SDS011;67068;52.116;4.440;2023-03-15T04:17:17;1.30;;;0.40;;
77872;SDS011;67068;52.116;4.440;2023-03-15T04:19:42;1.37;;;0.27;;
77872;SDS011;67068;52.116;4.440;2023-03-15T04:22:10;1.08;;;0.30;;
77872;SDS011;67068;52.116;4.440;2023-03-15T04:24:39;3.83;;;0.38;;
77872;SDS011;67068;52.116;4.440;2023-03-15T04:27:04;1.30;;;0.30;;
77872;SDS011;67068;52.116;4.440;2023-03-15T04:29:30;1.40;;;0.20;;
77872;SDS011;67068;52.116;4.440;2023-03-15T04:31:55;2.05;;;0.30;;
77872;SDS011;67068;52.116;4.440;2023-03-15T04:34:26;1.15;;;0.30;;
77872;SDS011;67068;52.116;4.440;2023-03-15T04:36:52;1.35;;;0.30;;
77872;SDS011;67068;52.116;4.440;2023-03-15T04:39:18;3.63;;;0.40;;
77872;SDS011;67068;52.116;4.440;2023-03-15T04:41:44;2.97;;;0.50;;
77872;SDS011;67068;52.116;4.440;2023-03-15T04:44:09;3.97;;;0.70;;
77872;SDS011;67068;52.116;4.440;2023-03-15T04:46:34;2.40;;;0.47;;
77872;SDS011;67068;52.116;4.440;2023-03-15T04:48:59;1.10;;;0.30;;
77872;SDS011;67068;52.116;4.440;2023-03-15T04:51:25;3.13;;;0.35;;
77872;SDS011;67068;52.116;4.440;2023-03-15T04:53:50;2.80;;;0.43;;
77872;SDS011;67068;52.116;4.440;2023-03-15T04:56:15;3.97;;;0.53;;
77872;SDS011;67068;52.116;4.440;2023-03-15T04:58:40;2.10;;;0.40;;
77872;SDS011;67068;52.116;4.440;2023-03-15T05:01:06;0.80;;;0.30;;
77872;SDS011;67068;52.116;4.440;2023-03-15T05:03:31;1.63;;;0.50;;
77872;SDS011;67068;52.116;4.440;2023-03-15T05:05:56;3.00;;;0.43;;
77872;SDS011;67068;52.116;4.440;2023-03-15T05:08:21;1.77;;;0.30;;
77872;SDS011;67068;52.116;4.440;2023-03-15T05:10:46;2.10;;;0.50;;
77872;SDS011;67068;52.116;4.440;2023-03-15T05:13:12;2.58;;;0.68;;
77872;SDS011;67068;52.116;4.440;2023-03-15T05:15:37;4.20;;;0.60;;
77872;SDS011;67068;52.116;4.440;2023-03-15T05:18:02;1.73;;;0.60;;
77872;SDS011;67068;52.116;4.440;2023-03-15T05:20:28;1.73;;;0.30;;
77872;SDS011;67068;52.116;4.440;2023-03-15T05:22:53;2.40;;;0.43;;
77872;SDS011;67068;52.116;4.440;2023-03-15T05:25:18;3.73;;;0.63;;
77872;SDS011;67068;52.116;4.440;2023-03-15T05:27:43;3.53;;;0.60;;
77872;SDS011;67068;52.116;4.440;2023-03-15T05:30:10;2.55;;;0.50;;
77872;SDS011;67068;52.116;4.440;2023-03-15T05:32:36;2.53;;;0.50;;
77872;SDS011;67068;52.116;4.440;2023-03-15T05:35:04;2.08;;;0.38;;
77872;SDS011;67068;52.116;4.440;2023-03-15T05:37:29;3.42;;;0.50;;
77872;SDS011;67068;52.116;4.440;2023-03-15T05:39:56;3.08;;;0.50;;
77872;SDS011;67068;52.116;4.440;2023-03-15T05:42:21;2.20;;;0.47;;
77872;SDS011;67068;52.116;4.440;2023-03-15T05:44:50;5.88;;;0.80;;
77872;SDS011;67068;52.116;4.440;2023-03-15T05:47:16;5.88;;;0.70;;
77872;SDS011;67068;52.116;4.440;2023-03-15T05:49:41;5.18;;;0.68;;
77872;SDS011;67068;52.116;4.440;2023-03-15T05:52:06;3.67;;;0.80;;
77872;SDS011;67068;52.116;4.440;2023-03-15T05:54:31;5.53;;;0.67;;
77872;SDS011;67068;52.116;4.440;2023-03-15T05:56:57;2.93;;;0.57;;
77872;SDS011;67068;52.116;4.440;2023-03-15T05:59:22;3.20;;;0.60;;
77872;SDS011;67068;52.116;4.440;2023-03-15T06:01:47;5.20;;;0.77;;
77872;SDS011;67068;52.116;4.440;2023-03-15T06:04:12;4.68;;;0.63;;
77872;SDS011;67068;52.116;4.440;2023-03-15T06:06:38;3.23;;;0.57;;
77872;SDS011;67068;52.116;4.440;2023-03-15T06:09:03;4.80;;;0.67;;
77872;SDS011;67068;52.116;4.440;2023-03-15T06:11:28;5.83;;;1.00;;
77872;SDS011;67068;52.116;4.440;2023-03-15T06:13:53;5.53;;;0.70;;
77872;SDS011;67068;52.116;4.440;2023-03-15T06:16:18;5.17;;;1.00;;
77872;SDS011;67068;52.116;4.440;2023-03-15T06:18:44;6.35;;;0.70;;
77872;SDS011;67068;52.116;4.440;2023-03-15T06:21:09;3.70;;;0.70;;
77872;SDS011;67068;52.116;4.440;2023-03-15T06:23:34;4.33;;;0.77;;
77872;SDS011;67068;52.116;4.440;2023-03-15T06:25:59;4.07;;;0.70;;
77872;SDS011;67068;52.116;4.440;2023-03-15T06:28:25;4.33;;;0.70;;
77872;SDS011;67068;52.116;4.440;2023-03-15T06:30:50;6.17;;;0.87;;
77872;SDS011;67068;52.116;4.440;2023-03-15T06:33:15;4.07;;;0.70;;
77872;SDS011;67068;52.116;4.440;2023-03-15T06:35:41;7.47;;;0.90;;
77872;SDS011;67068;52.116;4.440;2023-03-15T06:38:06;3.92;;;0.68;;
77872;SDS011;67068;52.116;4.440;2023-03-15T06:40:31;4.73;;;0.87;;
77872;SDS011;67068;52.116;4.440;2023-03-15T06:42:57;2.80;;;0.50;;
77872;SDS011;67068;52.116;4.440;2023-03-15T06:45:22;4.53;;;0.80;;
77872;SDS011;67068;52.116;4.440;2023-03-15T06:47:47;3.83;;;0.80;;
77872;SDS011;67068;52.116;4.440;2023-03-15T06:50:12;3.43;;;0.57;;
77872;SDS011;67068;52.116;4.440;2023-03-15T06:52:37;4.47;;;1.00;;
77872;SDS011;67068;52.116;4.440;2023-03-15T06:55:03;3.85;;;0.70;;
77872;SDS011;67068;52.116;4.440;2023-03-15T06:57:28;2.38;;;0.52;;
77872;SDS011;67068;52.116;4.440;2023-03-15T06:59:54;4.53;;;0.80;;
77872;SDS011;67068;52.116;4.440;2023-03-15T07:02:19;3.10;;;0.70;;
77872;SDS011;67068;52.116;4.440;2023-03-15T07:04:44;4.95;;;0.68;;
77872;SDS011;67068;52.116;4.440;2023-03-15T07:07:10;3.15;;;0.70;;
77872;SDS011;67068;52.116;4.440;2023-03-15T07:09:36;3.80;;;0.63;;
77872;SDS011;67068;52.116;4.440;2023-03-15T07:12:01;3.00;;;0.70;;
77872;SDS011;67068;52.116;4.440;2023-03-15T07:14:26;4.57;;;0.93;;
77872;SDS011;67068;52.116;4.440;2023-03-15T07:16:51;3.90;;;0.60;;
77872;SDS011;67068;52.116;4.440;2023-03-15T07:19:16;5.23;;;0.90;;
77872;SDS011;67068;52.116;4.440;2023-03-15T07:21:42;4.67;;;0.90;;
77872;SDS011;67068;52.116;4.440;2023-03-15T07:24:07;4.60;;;0.90;;
77872;SDS011;67068;52.116;4.440;2023-03-15T07:26:32;3.07;;;0.70;;
77872;SDS011;67068;52.116;4.440;2023-03-15T07:28:57;6.00;;;0.80;;
77872;SDS011;67068;52.116;4.440;2023-03-15T07:31:22;3.83;;;0.67;;
77872;SDS011;67068;52.116;4.440;2023-03-15T07:33:48;2.97;;;0.63;;
77872;SDS011;67068;52.116;4.440;2023-03-15T07:36:13;2.97;;;0.60;;
77872;SDS011;67068;52.116;4.440;2023-03-15T07:38:38;2.10;;;0.50;;
77872;SDS011;67068;52.116;4.440;2023-03-15T07:41:04;3.27;;;0.60;;
77872;SDS011;67068;52.116;4.440;2023-03-15T07:43:30;4.05;;;0.70;;
77872;SDS011;67068;52.116;4.440;2023-03-15T07:45:56;3.40;;;0.52;;
77872;SDS011;67068;52.116;4.440;2023-03-15T07:48:21;4.88;;;0.68;;
77872;SDS011;67068;52.116;4.440;2023-03-15T07:50:46;3.58;;;0.90;;
77872;SDS011;67068;52.116;4.440;2023-03-15T07:53:11;6.50;;;0.73;;
77872;SDS011;67068;52.116;4.440;2023-03-15T07:55:37;3.97;;;0.57;;
77872;SDS011;67068;52.116;4.440;2023-03-15T07:58:02;2.13;;;0.50;;
77872;SDS011;67068;52.116;4.440;2023-03-15T08:00:27;2.87;;;0.50;;
77872;SDS011;67068;52.116;4.440;2023-03-15T08:02:53;3.63;;;0.50;;
77872;SDS011;67068;52.116;4.440;2023-03-15T08:05:18;2.20;;;0.50;;
77872;SDS011;67068;52.116;4.440;2023-03-15T08:07:46;4.23;;;0.70;;
77872;SDS011;67068;52.116;4.440;2023-03-15T08:10:12;2.72;;;0.50;;
77872;SDS011;67068;52.116;4.440;2023-03-15T08:12:37;2.63;;;0.52;;
77872;SDS011;67068;52.116;4.440;2023-03-15T08:15:04;5.40;;;0.80;;
77872;SDS011;67068;52.116;4.440;2023-03-15T08:17:30;3.70;;;0.70;;
77872;SDS011;67068;52.116;4.440;2023-03-15T08:19:55;2.90;;;0.60;;
77872;SDS011;67068;52.116;4.440;2023-03-15T08:22:20;4.03;;;0.67;;
77872;SDS011;67068;52.116;4.440;2023-03-15T08:24:45;2.87;;;0.50;;
77872;SDS011;67068;52.116;4.440;2023-03-15T08:27:10;4.10;;;0.93;;
77872;SDS011;67068;52.116;4.440;2023-03-15T08:29:36;3.83;;;0.50;;
77872;SDS011;67068;52.116;4.440;2023-03-15T08:32:01;4.57;;;0.70;;
77872;SDS011;67068;52.116;4.440;2023-03-15T08:34:27;3.88;;;0.60;;
77872;SDS011;67068;52.116;4.440;2023-03-15T08:36:52;2.90;;;0.80;;
77872;SDS011;67068;52.116;4.440;2023-03-15T08:39:17;1.50;;;0.43;;
77872;SDS011;67068;52.116;4.440;2023-03-15T08:41:42;5.20;;;0.90;;
77872;SDS011;67068;52.116;4.440;2023-03-15T08:44:09;4.28;;;0.68;;
77872;SDS011;67068;52.116;4.440;2023-03-15T08:46:34;3.37;;;0.67;;
77872;SDS011;67068;52.116;4.440;2023-03-15T08:49:00;1.57;;;0.60;;
77872;SDS011;67068;52.116;4.440;2023-03-15T08:51:26;4.97;;;1.02;;
77872;SDS011;67068;52.116;4.440;2023-03-15T08:53:51;2.37;;;0.67;;
77872;SDS011;67068;52.116;4.440;2023-03-15T08:56:17;6.60;;;0.70;;
77872;SDS011;67068;52.116;4.440;2023-03-15T08:58:42;5.60;;;0.77;;
77872;SDS011;67068;52.116;4.440;2023-03-15T09:01:09;2.57;;;0.63;;
77872;SDS011;67068;52.116;4.440;2023-03-15T09:03:35;2.63;;;0.70;;
77872;SDS011;67068;52.116;4.440;2023-03-15T09:06:00;3.47;;;0.60;;
77872;SDS011;67068;52.116;4.440;2023-03-15T09:08:25;4.65;;;0.70;;
77872;SDS011;67068;52.116;4.440;2023-03-15T09:10:57;3.90;;;1.17;;
77872;SDS011;67068;52.116;4.440;2023-03-15T09:13:22;2.72;;;0.60;;
77872;SDS011;67068;52.116;4.440;2023-03-15T09:15:48;4.40;;;0.70;;
77872;SDS011;67068;52.116;4.440;2023-03-15T09:18:13;2.80;;;0.47;;
77872;SDS011;67068;52.116;4.440;2023-03-15T09:20:39;3.93;;;0.70;;
77872;SDS011;67068;52.116;4.440;2023-03-15T09:23:05;4.63;;;0.90;;
77872;SDS011;67068;52.116;4.440;2023-03-15T09:25:30;3.30;;;0.53;;
77872;SDS011;67068;52.116;4.440;2023-03-15T09:27:55;3.07;;;0.67;;
77872;SDS011;67068;52.116;4.440;2023-03-15T09:30:20;5.17;;;0.73;;
77872;SDS011;67068;52.116;4.440;2023-03-15T09:32:46;3.25;;;0.70;;
77872;SDS011;67068;52.116;4.440;2023-03-15T09:35:16;3.08;;;0.60;;
77872;SDS011;67068;52.116;4.440;2023-03-15T09:37:41;3.05;;;0.63;;
77872;SDS011;67068;52.116;4.440;2023-03-15T09:40:10;5.93;;;0.97;;
77872;SDS011;67068;52.116;4.440;2023-03-15T09:50:29;4.65;;;1.02;;
77872;SDS011;67068;52.116;4.440;2023-03-15T09:53:03;4.43;;;1.02;;
77872;SDS011;67068;52.116;4.440;2023-03-15T09:55:28;5.45;;;0.80;;
77872;SDS011;67068;52.116;4.440;2023-03-15T09:57:57;3.00;;;0.77;;
77872;SDS011;67068;52.116;4.440;2023-03-15T10:03:00;4.53;;;0.80;;
77872;SDS011;67068;52.116;4.440;2023-03-15T10:07:58;2.63;;;0.60;;
77872;SDS011;67068;52.116;4.440;2023-03-15T10:10:26;2.70;;;0.53;;
77872;SDS011;67068;52.116;4.440;2023-03-15T10:12:57;5.18;;;0.90;;
77872;SDS011;67068;52.116;4.440;2023-03-15T10:15:35;3.50;;;0.70;;
77872;SDS011;67068;52.116;4.440;2023-03-15T10:18:24;3.55;;;0.80;;
77872;SDS011;67068;52.116;4.440;2023-03-15T10:21:18;2.95;;;0.70;;
77872;SDS011;67068;52.116;4.440;2023-03-15T10:23:44;3.15;;;0.63;;
77872;SDS011;67068;52.116;4.440;2023-03-15T10:26:10;3.38;;;0.50;;
77872;SDS011;67068;52.116;4.440;2023-03-15T10:28:39;3.08;;;0.70;;
77872;SDS011;67068;52.116;4.440;2023-03-15T10:31:14;2.65;;;0.63;;
77872;SDS011;67068;52.116;4.440;2023-03-15T10:33:40;4.82;;;0.80;;
77872;SDS011;67068;52.116;4.440;2023-03-15T10:36:13;4.95;;;0.70;;
77872;SDS011;67068;52.116;4.440;2023-03-15T10:38:39;3.20;;;0.70;;
77872;SDS011;67068;52.116;4.440;2023-03-15T10:41:06;2.97;;;0.63;;
77872;SDS011;67068;52.116;4.440;2023-03-15T10:43:32;2.40;;;0.50;;
77872;SDS011;67068;52.116;4.440;2023-03-15T10:46:02;2.50;;;0.75;;
77872;SDS011;67068;52.116;4.440;2023-03-15T10:48:29;3.45;;;0.80;;
77872;SDS011;67068;52.116;4.440;2023-03-15T10:50:55;3.65;;;0.70;;
77872;SDS011;67068;52.116;4.440;2023-03-15T10:53:21;3.25;;;0.65;;
77872;SDS011;67068;52.116;4.440;2023-03-15T10:55:53;4.35;;;0.70;;
77872;SDS011;67068;52.116;4.440;2023-03-15T10:58:26;2.47;;;0.50;;
77872;SDS011;67068;52.116;4.440;2023-03-15T11:00:59;3.00;;;0.80;;
77872;SDS011;67068;52.116;4.440;2023-03-15T11:03:25;2.97;;;0.90;;
77872;SDS011;67068;52.116;4.440;2023-03-15T11:05:52;2.17;;;0.60;;
77872;SDS011;67068;52.116;4.440;2023-03-15T11:08:18;2.13;;;0.55;;
77872;SDS011;67068;52.116;4.440;2023-03-15T11:10:54;2.97;;;0.60;;
77872;SDS011;67068;52.116;4.440;2023-03-15T11:13:21;2.30;;;0.57;;
77872;SDS011;67068;52.116;4.440;2023-03-15T11:15:53;3.25;;;0.80;;
77872;SDS011;67068;52.116;4.440;2023-03-15T11:18:23;2.13;;;0.45;;
77872;SDS011;67068;52.116;4.440;2023-03-15T11:20:49;3.78;;;0.60;;
77872;SDS011;67068;52.116;4.440;2023-03-15T11:23:22;4.35;;;0.73;;
77872;SDS011;67068;52.116;4.440;2023-03-15T11:25:49;2.45;;;0.60;;
77872;SDS011;67068;52.116;4.440;2023-03-15T11:28:16;3.22;;;0.65;;
77872;SDS011;67068;52.116;4.440;2023-03-15T11:30:42;4.68;;;0.68;;
77872;SDS011;67068;52.116;4.440;2023-03-15T11:33:09;2.90;;;0.70;;
77872;SDS011;67068;52.116;4.440;2023-03-15T11:35:38;2.65;;;0.40;;
77872;SDS011;67068;52.116;4.440;2023-03-15T11:38:09;3.78;;;0.70;;
77872;SDS011;67068;52.116;4.440;2023-03-15T11:40:42;3.05;;;0.55;;
77872;SDS011;67068;52.116;4.440;2023-03-15T11:43:21;3.83;;;0.70;;
77872;SDS011;67068;52.116;4.440;2023-03-15T11:46:13;3.55;;;0.70;;
77872;SDS011;67068;52.116;4.440;2023-03-15T11:48:43;3.22;;;0.63;;
77872;SDS011;67068;52.116;4.440;2023-03-15T11:51:11;3.17;;;0.50;;
77872;SDS011;67068;52.116;4.440;2023-03-15T11:53:38;1.92;;;0.43;;
77872;SDS011;67068;52.116;4.440;2023-03-15T11:58:58;2.70;;;0.52;;
77872;SDS011;67068;52.116;4.440;2023-03-15T12:01:25;3.47;;;0.60;;
77872;SDS011;67068;52.116;4.440;2023-03-15T12:03:53;1.87;;;0.50;;
77872;SDS011;67068;52.116;4.440;2023-03-15T12:06:36;3.42;;;0.70;;
77872;SDS011;67068;52.116;4.440;2023-03-15T12:09:02;2.70;;;0.70;;
77872;SDS011;67068;52.116;4.440;2023-03-15T12:11:47;4.70;;;0.60;;
77872;SDS011;67068;52.116;4.440;2023-03-15T12:14:26;2.77;;;0.60;;
77872;SDS011;67068;52.116;4.440;2023-03-15T12:16:53;3.25;;;0.75;;
77872;SDS011;67068;52.116;4.440;2023-03-15T12:19:21;3.97;;;0.70;;
77872;SDS011;67068;52.116;4.440;2023-03-15T12:21:55;3.08;;;0.60;;
77872;SDS011;67068;52.116;4.440;2023-03-15T12:24:25;2.58;;;0.45;;
77872;SDS011;67068;52.116;4.440;2023-03-15T12:26:59;3.53;;;0.50;;
77872;SDS011;67068;52.116;4.440;2023-03-15T12:29:28;2.80;;;0.60;;
77872;SDS011;67068;52.116;4.440;2023-03-15T12:39:20;4.57;;;0.80;;
77872;SDS011;67068;52.116;4.440;2023-03-15T12:41:46;3.38;;;0.73;;
77872;SDS011;67068;52.116;4.440;2023-03-15T12:47:03;4.00;;;0.52;;
77872;SDS011;67068;52.116;4.440;2023-03-15T12:52:12;2.05;;;0.55;;
77872;SDS011;67068;52.116;4.440;2023-03-15T12:54:50;4.45;;;1.15;;
77872;SDS011;67068;52.116;4.440;2023-03-15T12:57:21;5.45;;;1.15;;
77872;SDS011;67068;52.116;4.440;2023-03-15T12:59:50;4.68;;;0.85;;
77872;SDS011;67068;52.116;4.440;2023-03-15T13:02:26;4.85;;;0.90;;
77872;SDS011;67068;52.116;4.440;2023-03-15T13:13:22;9.18;;;1.73;;
77872;SDS011;67068;52.116;4.440;2023-03-15T13:18:35;7.22;;;1.27;;
77872;SDS011;67068;52.116;4.440;2023-03-15T13:21:11;7.72;;;1.65;;
77872;SDS011;67068;52.116;4.440;2023-03-15T13:23:41;8.05;;;1.30;;
77872;SDS011;67068;52.116;4.440;2023-03-15T13:28:36;10.17;;;2.13;;
77872;SDS011;67068;52.116;4.440;2023-03-15T13:31:12;9.25;;;1.70;;
77872;SDS011;67068;52.116;4.440;2023-03-15T13:33:41;6.45;;;1.65;;
77872;SDS011;67068;52.116;4.440;2023-03-15T13:36:10;9.80;;;2.10;;
77872;SDS011;67068;52.116;4.440;2023-03-15T13:38:46;10.70;;;1.88;;
77872;SDS011;67068;52.116;4.440;2023-03-15T13:43:43;9.00;;;2.08;;
77872;SDS011;67068;52.116;4.440;2023-03-15T13:46:09;9.75;;;1.75;;
77872;SDS011;67068;52.116;4.440;2023-03-15T13:48:35;7.80;;;1.67;;
77872;SDS011;67068;52.116;4.440;2023-03-15T13:51:05;8.25;;;1.77;;
77872;SDS011;67068;52.116;4.440;2023-03-15T13:53:32;9.02;;;1.63;;
77872;SDS011;67068;52.116;4.440;2023-03-15T13:55:59;10.05;;;1.85;;
77872;SDS011;67068;52.116;4.440;2023-03-15T13:58:24;6.37;;;1.40;;
77872;SDS011;67068;52.116;4.440;2023-03-15T14:00:54;9.13;;;2.13;;
77872;SDS011;67068;52.116;4.440;2023-03-15T14:03:20;8.18;;;1.75;;
77872;SDS011;67068;52.116;4.440;2023-03-15T14:05:47;8.07;;;1.40;;
77872;SDS011;67068;52.116;4.440;2023-03-15T14:08:27;7.70;;;1.60;;
77872;SDS011;67068;52.116;4.440;2023-03-15T14:11:06;7.07;;;1.27;;
77872;SDS011;67068;52.116;4.440;2023-03-15T14:16:03;7.33;;;1.50;;
77872;SDS011;67068;52.116;4.440;2023-03-15T14:18:29;7.25;;;1.58;;
77872;SDS011;67068;52.116;4.440;2023-03-15T14:20:57;8.85;;;1.58;;
77872;SDS011;67068;52.116;4.440;2023-03-15T14:23:24;6.97;;;1.27;;
77872;SDS011;67068;52.116;4.440;2023-03-15T14:25:51;6.72;;;1.35;;
77872;SDS011;67068;52.116;4.440;2023-03-15T14:28:17;6.22;;;1.38;;
77872;SDS011;67068;52.116;4.440;2023-03-15T14:30:42;6.75;;;1.20;;
77872;SDS011;67068;52.116;4.440;2023-03-15T14:33:32;5.78;;;1.23;;
77872;SDS011;67068;52.116;4.440;2023-03-15T14:35:59;6.97;;;1.05;;
77872;SDS011;67068;52.116;4.440;2023-03-15T14:38:25;7.15;;;1.33;;
77872;SDS011;67068;52.116;4.440;2023-03-15T14:40:51;6.70;;;1.45;;
77872;SDS011;67068;52.116;4.440;2023-03-15T14:43:17;7.35;;;1.60;;
77872;SDS011;67068;52.116;4.440;2023-03-15T14:45:42;5.68;;;1.40;;
77872;SDS011;67068;52.116;4.440;2023-03-15T14:48:20;6.68;;;1.20;;
77872;SDS011;67068;52.116;4.440;2023-03-15T14:50:50;6.05;;;1.13;;
77872;SDS011;67068;52.116;4.440;2023-03-15T14:53:16;4.63;;;1.00;;
77872;SDS011;67068;52.116;4.440;2023-03-15T14:55:41;5.90;;;1.20;;
77872;SDS011;67068;52.116;4.440;2023-03-15T14:58:11;7.63;;;1.45;;
77872;SDS011;67068;52.116;4.440;2023-03-15T15:00:37;4.43;;;1.15;;
77872;SDS011;67068;52.116;4.440;2023-03-15T15:03:02;5.90;;;1.17;;
77872;SDS011;67068;52.116;4.440;2023-03-15T15:05:29;8.65;;;1.40;;
77872;SDS011;67068;52.116;4.440;2023-03-15T15:08:01;7.28;;;1.40;;
77872;SDS011;67068;52.116;4.440;2023-03-15T15:10:26;6.55;;;0.93;;
77872;SDS011;67068;52.116;4.440;2023-03-15T15:12:52;6.50;;;1.48;;
77872;SDS011;67068;52.116;4.440;2023-03-15T15:15:18;9.83;;;1.60;;
77872;SDS011;67068;52.116;4.440;2023-03-15T15:17:44;7.10;;;0.95;;
77872;SDS011;67068;52.116;4.440;2023-03-15T15:20:12;3.75;;;0.82;;
77872;SDS011;67068;52.116;4.440;2023-03-15T15:22:39;6.78;;;0.93;;
77872;SDS011;67068;52.116;4.440;2023-03-15T15:25:12;5.97;;;1.13;;
77872;SDS011;67068;52.116;4.440;2023-03-15T15:27:38;4.85;;;1.00;;
77872;SDS011;67068;52.116;4.440;2023-03-15T15:30:03;5.80;;;1.00;;
77872;SDS011;67068;52.116;4.440;2023-03-15T15:32:29;4.25;;;0.85;;
77872;SDS011;67068;52.116;4.440;2023-03-15T15:34:57;3.70;;;0.77;;
77872;SDS011;67068;52.116;4.440;2023-03-15T15:37:23;6.10;;;1.00;;
77872;SDS011;67068;52.116;4.440;2023-03-15T15:39:48;4.60;;;1.00;;
77872;SDS011;67068;52.116;4.440;2023-03-15T15:42:13;5.10;;;1.02;;
77872;SDS011;67068;52.116;4.440;2023-03-15T15:44:39;3.90;;;0.87;;